sensor_id;sensor_type;location;lat;lon;timestamp;temperature;humidity
14119;DHT22;7138;49.246;9.100;2023-02-04T00:00:01;7.00;99.90
14119;DHT22;7138;49.246;9.100;2023-02-04T00:02:27;6.90;99.90
14119;DHT22;7138;49.246;9.100;2023-02-04T00:04:53;6.90;99.90
14119;DHT22;7138;49.246;9.100;2023-02-04T00:07:19;7.00;99.90
14119;DHT22;7138;49.246;9.100;2023-02-04T00:09:44;7.00;99.90
14119;DHT22;7138;49.246;9.100;2023-02-04T00:12:12;6.90;99.90
14119;DHT22;7138;49.246;9.100;2023-02-04T00:14:39;6.90;99.90
14119;DHT22;7138;49.246;9.100;2023-02-04T00:17:04;6.90;99.90
14119;DHT22;7138;49.246;9.100;2023-02-04T00:19:32;6.90;99.90
14119;DHT22;7138;49.246;9.100;2023-02-04T00:21:58;6.90;99.90
14119;DHT22;7138;49.246;9.100;2023-02-04T00:24:24;6.90;99.90
14119;DHT22;7138;49.246;9.100;2023-02-04T00:26:49;7.00;99.90
14119;DHT22;7138;49.246;9.100;2023-02-04T00:29:17;7.10;99.90
14119;DHT22;7138;49.246;9.100;2023-02-04T00:31:42;7.20;99.90
14119;DHT22;7138;49.246;9.100;2023-02-04T00:34:08;7.20;99.90
14119;DHT22;7138;49.246;9.100;2023-02-04T00:36:34;7.30;99.90
14119;DHT22;7138;49.246;9.100;2023-02-04T00:39:00;7.30;99.90
14119;DHT22;7138;49.246;9.100;2023-02-04T00:41:25;7.20;99.90
14119;DHT22;7138;49.246;9.100;2023-02-04T00:43:51;7.20;99.90
14119;DHT22;7138;49.246;9.100;2023-02-04T00:46:18;7.20;99.90
14119;DHT22;7138;49.246;9.100;2023-02-04T00:48:44;7.20;99.90
14119;DHT22;7138;49.246;9.100;2023-02-04T00:51:10;7.10;99.90
14119;DHT22;7138;49.246;9.100;2023-02-04T00:53:36;7.20;99.90
14119;DHT22;7138;49.246;9.100;2023-02-04T00:56:01;7.20;99.90
14119;DHT22;7138;49.246;9.100;2023-02-04T00:58:27;7.30;99.90
14119;DHT22;7138;49.246;9.100;2023-02-04T01:00:53;7.30;99.90
14119;DHT22;7138;49.246;9.100;2023-02-04T01:03:20;7.20;99.90
14119;DHT22;7138;49.246;9.100;2023-02-04T01:05:46;7.20;99.90
14119;DHT22;7138;49.246;9.100;2023-02-04T01:08:12;7.20;99.90
14119;DHT22;7138;49.246;9.100;2023-02-04T01:10:38;7.20;99.90
14119;DHT22;7138;49.246;9.100;2023-02-04T01:13:04;7.20;99.90
14119;DHT22;7138;49.246;9.100;2023-02-04T01:15:29;7.20;99.90
14119;DHT22;7138;49.246;9.100;2023-02-04T01:17:55;7.20;99.90
14119;DHT22;7138;49.246;9.100;2023-02-04T01:20:23;7.20;99.90
14119;DHT22;7138;49.246;9.100;2023-02-04T01:22:48;7.10;99.90
14119;DHT22;7138;49.246;9.100;2023-02-04T01:25:14;7.20;99.90
14119;DHT22;7138;49.246;9.100;2023-02-04T01:27:40;7.10;99.90
14119;DHT22;7138;49.246;9.100;2023-02-04T01:30:09;7.20;99.90
14119;DHT22;7138;49.246;9.100;2023-02-04T01:32:35;7.20;99.90
14119;DHT22;7138;49.246;9.100;2023-02-04T01:35:01;7.10;99.90
14119;DHT22;7138;49.246;9.100;2023-02-04T01:37:28;7.10;99.90
14119;DHT22;7138;49.246;9.100;2023-02-04T01:39:57;7.10;99.90
14119;DHT22;7138;49.246;9.100;2023-02-04T01:42:23;7.20;99.90
14119;DHT22;7138;49.246;9.100;2023-02-04T01:44:50;7.20;99.90
14119;DHT22;7138;49.246;9.100;2023-02-04T01:47:17;7.20;99.90
14119;DHT22;7138;49.246;9.100;2023-02-04T01:49:44;7.10;99.90
14119;DHT22;7138;49.246;9.100;2023-02-04T01:52:14;7.10;99.90
14119;DHT22;7138;49.246;9.100;2023-02-04T01:54:42;7.10;99.90
14119;DHT22;7138;49.246;9.100;2023-02-04T01:57:11;7.10;99.90
14119;DHT22;7138;49.246;9.100;2023-02-04T01:59:41;7.10;99.90
14119;DHT22;7138;49.246;9.100;2023-02-04T02:02:37;7.10;99.90
14119;DHT22;7138;49.246;9.100;2023-02-04T02:05:09;7.10;99.90
14119;DHT22;7138;49.246;9.100;2023-02-04T02:07:37;7.00;99.90
14119;DHT22;7138;49.246;9.100;2023-02-04T02:10:07;7.10;99.90
14119;DHT22;7138;49.246;9.100;2023-02-04T02:12:35;7.00;99.90
14119;DHT22;7138;49.246;9.100;2023-02-04T02:15:01;7.00;99.90
14119;DHT22;7138;49.246;9.100;2023-02-04T02:17:27;7.00;99.90
14119;DHT22;7138;49.246;9.100;2023-02-04T02:19:53;7.10;99.90
14119;DHT22;7138;49.246;9.100;2023-02-04T02:22:24;7.00;99.90
14119;DHT22;7138;49.246;9.100;2023-02-04T02:24:55;6.90;99.90
14119;DHT22;7138;49.246;9.100;2023-02-04T02:27:21;6.90;99.90
14119;DHT22;7138;49.246;9.100;2023-02-04T02:29:47;6.90;99.90
14119;DHT22;7138;49.246;9.100;2023-02-04T02:32:14;6.90;99.90
14119;DHT22;7138;49.246;9.100;2023-02-04T02:34:41;6.80;99.90
14119;DHT22;7138;49.246;9.100;2023-02-04T02:37:09;6.80;99.90
14119;DHT22;7138;49.246;9.100;2023-02-04T02:39:35;6.90;99.90
14119;DHT22;7138;49.246;9.100;2023-02-04T02:42:04;6.80;99.90
14119;DHT22;7138;49.246;9.100;2023-02-04T02:44:31;6.70;99.90
14119;DHT22;7138;49.246;9.100;2023-02-04T02:46:58;6.80;99.90
14119;DHT22;7138;49.246;9.100;2023-02-04T02:49:25;6.70;99.90
14119;DHT22;7138;49.246;9.100;2023-02-04T02:51:53;6.70;99.90
14119;DHT22;7138;49.246;9.100;2023-02-04T02:54:22;6.60;99.90
14119;DHT22;7138;49.246;9.100;2023-02-04T02:56:51;6.60;99.90
14119;DHT22;7138;49.246;9.100;2023-02-04T02:59:19;6.70;99.90
14119;DHT22;7138;49.246;9.100;2023-02-04T03:01:47;6.60;99.90
14119;DHT22;7138;49.246;9.100;2023-02-04T03:04:17;6.60;99.90
14119;DHT22;7138;49.246;9.100;2023-02-04T03:06:44;6.60;99.90
14119;DHT22;7138;49.246;9.100;2023-02-04T03:09:10;6.60;99.90
14119;DHT22;7138;49.246;9.100;2023-02-04T03:11:36;6.60;99.90
14119;DHT22;7138;49.246;9.100;2023-02-04T03:14:03;6.50;99.90
14119;DHT22;7138;49.246;9.100;2023-02-04T03:16:32;6.60;99.90
14119;DHT22;7138;49.246;9.100;2023-02-04T03:18:59;6.60;99.90
14119;DHT22;7138;49.246;9.100;2023-02-04T03:21:26;6.70;99.90
14119;DHT22;7138;49.246;9.100;2023-02-04T03:23:53;6.60;99.90
14119;DHT22;7138;49.246;9.100;2023-02-04T03:26:23;6.50;99.90
14119;DHT22;7138;49.246;9.100;2023-02-04T03:28:50;6.50;99.90
14119;DHT22;7138;49.246;9.100;2023-02-04T03:31:18;6.50;99.90
14119;DHT22;7138;49.246;9.100;2023-02-04T03:33:46;6.50;99.90
14119;DHT22;7138;49.246;9.100;2023-02-04T03:36:12;6.40;99.90
14119;DHT22;7138;49.246;9.100;2023-02-04T03:38:38;6.30;99.90
14119;DHT22;7138;49.246;9.100;2023-02-04T03:41:04;6.20;99.90
14119;DHT22;7138;49.246;9.100;2023-02-04T03:43:30;6.20;99.90
14119;DHT22;7138;49.246;9.100;2023-02-04T03:45:56;6.20;99.90
14119;DHT22;7138;49.246;9.100;2023-02-04T03:48:21;6.10;99.90
14119;DHT22;7138;49.246;9.100;2023-02-04T03:50:48;6.00;99.90
14119;DHT22;7138;49.246;9.100;2023-02-04T03:53:14;6.10;99.90
14119;DHT22;7138;49.246;9.100;2023-02-04T03:55:40;6.10;99.90
14119;DHT22;7138;49.246;9.100;2023-02-04T03:58:06;6.10;99.90
14119;DHT22;7138;49.246;9.100;2023-02-04T04:00:32;6.10;99.90
14119;DHT22;7138;49.246;9.100;2023-02-04T04:02:58;6.10;99.90
14119;DHT22;7138;49.246;9.100;2023-02-04T04:05:24;6.00;99.90
14119;DHT22;7138;49.246;9.100;2023-02-04T04:07:53;6.00;99.90
14119;DHT22;7138;49.246;9.100;2023-02-04T04:10:19;5.90;99.90
14119;DHT22;7138;49.246;9.100;2023-02-04T04:12:45;5.80;99.90
14119;DHT22;7138;49.246;9.100;2023-02-04T04:15:11;5.70;99.90
14119;DHT22;7138;49.246;9.100;2023-02-04T04:17:36;5.70;99.90
14119;DHT22;7138;49.246;9.100;2023-02-04T04:20:03;5.60;99.90
14119;DHT22;7138;49.246;9.100;2023-02-04T04:22:30;5.60;99.90
14119;DHT22;7138;49.246;9.100;2023-02-04T04:24:57;5.80;99.90
14119;DHT22;7138;49.246;9.100;2023-02-04T04:27:23;6.00;99.90
14119;DHT22;7138;49.246;9.100;2023-02-04T04:29:50;5.90;99.90
14119;DHT22;7138;49.246;9.100;2023-02-04T04:32:16;6.00;99.90
14119;DHT22;7138;49.246;9.100;2023-02-04T04:34:42;6.00;99.90
14119;DHT22;7138;49.246;9.100;2023-02-04T04:37:08;5.90;99.90
14119;DHT22;7138;49.246;9.100;2023-02-04T04:39:33;5.90;99.90
14119;DHT22;7138;49.246;9.100;2023-02-04T04:42:00;6.00;99.90
14119;DHT22;7138;49.246;9.100;2023-02-04T04:44:26;5.90;99.90
14119;DHT22;7138;49.246;9.100;2023-02-04T04:46:52;5.80;99.90
14119;DHT22;7138;49.246;9.100;2023-02-04T04:49:19;5.80;99.90
14119;DHT22;7138;49.246;9.100;2023-02-04T04:51:45;5.90;99.90
14119;DHT22;7138;49.246;9.100;2023-02-04T04:54:10;5.90;99.90
14119;DHT22;7138;49.246;9.100;2023-02-04T04:56:36;5.80;99.90
14119;DHT22;7138;49.246;9.100;2023-02-04T04:59:03;5.70;99.90
14119;DHT22;7138;49.246;9.100;2023-02-04T05:01:29;5.60;99.90
14119;DHT22;7138;49.246;9.100;2023-02-04T05:03:55;5.70;99.90
14119;DHT22;7138;49.246;9.100;2023-02-04T05:06:21;5.60;99.90
14119;DHT22;7138;49.246;9.100;2023-02-04T05:08:49;5.50;99.90
14119;DHT22;7138;49.246;9.100;2023-02-04T05:11:16;5.40;99.90
14119;DHT22;7138;49.246;9.100;2023-02-04T05:13:42;5.50;99.90
14119;DHT22;7138;49.246;9.100;2023-02-04T05:16:09;5.50;99.90
14119;DHT22;7138;49.246;9.100;2023-02-04T05:18:38;5.50;99.90
14119;DHT22;7138;49.246;9.100;2023-02-04T05:21:04;5.40;99.90
14119;DHT22;7138;49.246;9.100;2023-02-04T05:23:31;5.40;99.90
14119;DHT22;7138;49.246;9.100;2023-02-04T05:25:57;5.40;99.90
14119;DHT22;7138;49.246;9.100;2023-02-04T05:28:22;5.40;99.90
14119;DHT22;7138;49.246;9.100;2023-02-04T05:30:48;5.40;99.90
14119;DHT22;7138;49.246;9.100;2023-02-04T05:33:15;5.40;99.90
14119;DHT22;7138;49.246;9.100;2023-02-04T05:35:41;5.40;99.90
14119;DHT22;7138;49.246;9.100;2023-02-04T05:38:07;5.30;99.90
14119;DHT22;7138;49.246;9.100;2023-02-04T05:40:33;5.20;99.90
14119;DHT22;7138;49.246;9.100;2023-02-04T05:42:59;5.20;99.90
14119;DHT22;7138;49.246;9.100;2023-02-04T05:45:25;5.20;99.90
14119;DHT22;7138;49.246;9.100;2023-02-04T05:47:51;5.10;99.90
14119;DHT22;7138;49.246;9.100;2023-02-04T05:50:19;5.00;99.90
14119;DHT22;7138;49.246;9.100;2023-02-04T05:52:44;5.00;99.90
14119;DHT22;7138;49.246;9.100;2023-02-04T05:55:11;4.90;99.90
14119;DHT22;7138;49.246;9.100;2023-02-04T05:57:37;5.00;99.90
14119;DHT22;7138;49.246;9.100;2023-02-04T06:00:05;4.90;99.90
14119;DHT22;7138;49.246;9.100;2023-02-04T06:02:31;4.90;99.90
14119;DHT22;7138;49.246;9.100;2023-02-04T06:04:57;4.90;99.90
14119;DHT22;7138;49.246;9.100;2023-02-04T06:07:26;4.90;99.90
14119;DHT22;7138;49.246;9.100;2023-02-04T06:09:51;4.80;99.90
14119;DHT22;7138;49.246;9.100;2023-02-04T06:12:17;4.90;99.90
14119;DHT22;7138;49.246;9.100;2023-02-04T06:14:43;4.80;99.90
14119;DHT22;7138;49.246;9.100;2023-02-04T06:17:09;4.70;99.90
14119;DHT22;7138;49.246;9.100;2023-02-04T06:19:34;4.70;99.90
14119;DHT22;7138;49.246;9.100;2023-02-04T06:22:00;4.80;99.90
14119;DHT22;7138;49.246;9.100;2023-02-04T06:24:28;4.80;99.90
14119;DHT22;7138;49.246;9.100;2023-02-04T06:26:53;4.80;99.90
14119;DHT22;7138;49.246;9.100;2023-02-04T06:29:19;4.80;99.90
14119;DHT22;7138;49.246;9.100;2023-02-04T06:31:45;4.90;99.90
14119;DHT22;7138;49.246;9.100;2023-02-04T06:34:13;4.80;99.90
14119;DHT22;7138;49.246;9.100;2023-02-04T06:36:39;4.90;99.90
14119;DHT22;7138;49.246;9.100;2023-02-04T06:39:05;4.80;99.90
14119;DHT22;7138;49.246;9.100;2023-02-04T06:41:32;4.80;99.90
14119;DHT22;7138;49.246;9.100;2023-02-04T06:43:57;4.60;99.90
14119;DHT22;7138;49.246;9.100;2023-02-04T06:46:23;4.50;99.90
14119;DHT22;7138;49.246;9.100;2023-02-04T06:48:49;4.40;99.90
14119;DHT22;7138;49.246;9.100;2023-02-04T06:51:15;4.30;99.90
14119;DHT22;7138;49.246;9.100;2023-02-04T06:53:41;4.20;99.90
14119;DHT22;7138;49.246;9.100;2023-02-04T06:56:09;4.20;99.90
14119;DHT22;7138;49.246;9.100;2023-02-04T06:58:37;4.20;99.90
14119;DHT22;7138;49.246;9.100;2023-02-04T07:01:03;4.30;99.90
14119;DHT22;7138;49.246;9.100;2023-02-04T07:03:30;4.40;99.90
14119;DHT22;7138;49.246;9.100;2023-02-04T07:05:56;4.50;99.90
14119;DHT22;7138;49.246;9.100;2023-02-04T07:08:22;4.60;99.90
14119;DHT22;7138;49.246;9.100;2023-02-04T07:10:48;4.80;99.90
14119;DHT22;7138;49.246;9.100;2023-02-04T07:13:14;4.80;99.90
14119;DHT22;7138;49.246;9.100;2023-02-04T07:15:41;4.70;99.90
14119;DHT22;7138;49.246;9.100;2023-02-04T07:18:07;4.60;99.90
14119;DHT22;7138;49.246;9.100;2023-02-04T07:20:33;4.60;99.90
14119;DHT22;7138;49.246;9.100;2023-02-04T07:22:58;4.60;99.90
14119;DHT22;7138;49.246;9.100;2023-02-04T07:25:24;4.50;99.90
14119;DHT22;7138;49.246;9.100;2023-02-04T07:27:50;4.60;99.90
14119;DHT22;7138;49.246;9.100;2023-02-04T07:30:16;4.70;99.90
14119;DHT22;7138;49.246;9.100;2023-02-04T07:32:43;4.60;99.90
14119;DHT22;7138;49.246;9.100;2023-02-04T07:35:09;4.70;99.90
14119;DHT22;7138;49.246;9.100;2023-02-04T07:37:37;4.70;99.90
14119;DHT22;7138;49.246;9.100;2023-02-04T07:40:03;4.70;99.90
14119;DHT22;7138;49.246;9.100;2023-02-04T07:42:30;4.80;99.90
14119;DHT22;7138;49.246;9.100;2023-02-04T07:44:55;4.80;99.90
14119;DHT22;7138;49.246;9.100;2023-02-04T07:47:21;5.00;99.90
14119;DHT22;7138;49.246;9.100;2023-02-04T07:49:48;4.90;99.90
14119;DHT22;7138;49.246;9.100;2023-02-04T07:52:15;5.00;99.90
14119;DHT22;7138;49.246;9.100;2023-02-04T07:54:41;5.10;99.90
14119;DHT22;7138;49.246;9.100;2023-02-04T07:57:07;5.00;99.90
14119;DHT22;7138;49.246;9.100;2023-02-04T07:59:33;4.90;99.90
14119;DHT22;7138;49.246;9.100;2023-02-04T08:01:59;5.00;99.90
14119;DHT22;7138;49.246;9.100;2023-02-04T08:04:26;5.00;99.90
14119;DHT22;7138;49.246;9.100;2023-02-04T08:06:53;5.00;99.90
14119;DHT22;7138;49.246;9.100;2023-02-04T08:09:19;5.10;99.90
14119;DHT22;7138;49.246;9.100;2023-02-04T08:11:45;5.20;99.90
14119;DHT22;7138;49.246;9.100;2023-02-04T08:14:11;5.20;99.90
14119;DHT22;7138;49.246;9.100;2023-02-04T08:16:38;5.20;99.90
14119;DHT22;7138;49.246;9.100;2023-02-04T08:19:04;5.10;99.90
14119;DHT22;7138;49.246;9.100;2023-02-04T08:21:30;5.10;99.90
14119;DHT22;7138;49.246;9.100;2023-02-04T08:23:57;5.10;99.90
14119;DHT22;7138;49.246;9.100;2023-02-04T08:26:23;5.10;99.90
14119;DHT22;7138;49.246;9.100;2023-02-04T08:28:48;5.00;99.90
14119;DHT22;7138;49.246;9.100;2023-02-04T08:31:14;5.00;99.90
14119;DHT22;7138;49.246;9.100;2023-02-04T08:33:40;5.00;99.90
14119;DHT22;7138;49.246;9.100;2023-02-04T08:36:07;5.10;99.90
14119;DHT22;7138;49.246;9.100;2023-02-04T08:38:33;5.20;99.90
14119;DHT22;7138;49.246;9.100;2023-02-04T08:41:00;5.30;99.90
14119;DHT22;7138;49.246;9.100;2023-02-04T08:43:26;5.30;99.90
14119;DHT22;7138;49.246;9.100;2023-02-04T08:45:52;5.30;99.90
14119;DHT22;7138;49.246;9.100;2023-02-04T08:48:18;5.40;99.90
14119;DHT22;7138;49.246;9.100;2023-02-04T08:50:43;5.40;99.90
14119;DHT22;7138;49.246;9.100;2023-02-04T08:53:09;5.50;99.90
14119;DHT22;7138;49.246;9.100;2023-02-04T08:55:35;5.60;99.90
14119;DHT22;7138;49.246;9.100;2023-02-04T08:58:02;5.70;99.90
14119;DHT22;7138;49.246;9.100;2023-02-04T09:00:28;5.70;99.90
14119;DHT22;7138;49.246;9.100;2023-02-04T09:02:54;5.80;99.90
14119;DHT22;7138;49.246;9.100;2023-02-04T09:05:20;5.80;99.90
14119;DHT22;7138;49.246;9.100;2023-02-04T09:07:46;5.90;99.90
14119;DHT22;7138;49.246;9.100;2023-02-04T09:10:12;5.90;99.90
14119;DHT22;7138;49.246;9.100;2023-02-04T09:12:38;5.90;99.90
14119;DHT22;7138;49.246;9.100;2023-02-04T09:15:06;5.90;99.90
14119;DHT22;7138;49.246;9.100;2023-02-04T09:17:35;6.00;99.90
14119;DHT22;7138;49.246;9.100;2023-02-04T09:20:02;6.00;99.90
14119;DHT22;7138;49.246;9.100;2023-02-04T09:22:28;6.10;99.90
14119;DHT22;7138;49.246;9.100;2023-02-04T09:24:54;6.10;99.90
14119;DHT22;7138;49.246;9.100;2023-02-04T09:27:20;6.20;99.90
14119;DHT22;7138;49.246;9.100;2023-02-04T09:29:46;6.20;99.90
14119;DHT22;7138;49.246;9.100;2023-02-04T09:32:13;6.30;99.90
14119;DHT22;7138;49.246;9.100;2023-02-04T09:34:39;6.30;99.90
14119;DHT22;7138;49.246;9.100;2023-02-04T09:37:05;6.20;99.90
14119;DHT22;7138;49.246;9.100;2023-02-04T09:39:31;6.30;99.90
14119;DHT22;7138;49.246;9.100;2023-02-04T09:41:57;6.30;99.90
14119;DHT22;7138;49.246;9.100;2023-02-04T09:44:25;6.30;99.90
14119;DHT22;7138;49.246;9.100;2023-02-04T09:46:55;6.40;99.90
14119;DHT22;7138;49.246;9.100;2023-02-04T09:49:25;6.50;99.90
14119;DHT22;7138;49.246;9.100;2023-02-04T09:51:53;6.50;99.90
14119;DHT22;7138;49.246;9.100;2023-02-04T09:54:21;6.60;99.90
14119;DHT22;7138;49.246;9.100;2023-02-04T09:56:48;6.70;99.90
14119;DHT22;7138;49.246;9.100;2023-02-04T09:59:17;6.80;99.90
14119;DHT22;7138;49.246;9.100;2023-02-04T10:01:45;6.70;99.90
14119;DHT22;7138;49.246;9.100;2023-02-04T10:04:16;6.70;99.90
14119;DHT22;7138;49.246;9.100;2023-02-04T10:06:48;6.80;99.90
14119;DHT22;7138;49.246;9.100;2023-02-04T10:09:15;6.90;99.90
14119;DHT22;7138;49.246;9.100;2023-02-04T10:11:44;6.90;99.90
14119;DHT22;7138;49.246;9.100;2023-02-04T10:14:13;6.90;99.90
14119;DHT22;7138;49.246;9.100;2023-02-04T10:16:45;7.00;99.90
14119;DHT22;7138;49.246;9.100;2023-02-04T10:19:17;7.00;99.90
14119;DHT22;7138;49.246;9.100;2023-02-04T10:21:44;7.10;99.90
14119;DHT22;7138;49.246;9.100;2023-02-04T10:24:15;7.10;99.90
14119;DHT22;7138;49.246;9.100;2023-02-04T10:26:43;7.30;99.90
14119;DHT22;7138;49.246;9.100;2023-02-04T10:29:13;7.00;99.90
14119;DHT22;7138;49.246;9.100;2023-02-04T10:31:41;7.10;99.90
14119;DHT22;7138;49.246;9.100;2023-02-04T10:34:11;6.90;99.90
14119;DHT22;7138;49.246;9.100;2023-02-04T10:36:39;6.90;99.90
14119;DHT22;7138;49.246;9.100;2023-02-04T10:39:11;7.00;99.90
14119;DHT22;7138;49.246;9.100;2023-02-04T10:41:44;7.00;99.90
14119;DHT22;7138;49.246;9.100;2023-02-04T10:44:14;6.80;99.90
14119;DHT22;7138;49.246;9.100;2023-02-04T10:46:42;6.90;99.90
14119;DHT22;7138;49.246;9.100;2023-02-04T10:49:17;6.90;99.90
14119;DHT22;7138;49.246;9.100;2023-02-04T10:51:45;6.90;99.90
14119;DHT22;7138;49.246;9.100;2023-02-04T10:54:14;7.10;99.90
14119;DHT22;7138;49.246;9.100;2023-02-04T10:56:56;7.10;99.90
14119;DHT22;7138;49.246;9.100;2023-02-04T10:59:25;7.30;99.90
14119;DHT22;7138;49.246;9.100;2023-02-04T11:01:52;7.30;99.90
14119;DHT22;7138;49.246;9.100;2023-02-04T11:04:20;7.10;99.90
14119;DHT22;7138;49.246;9.100;2023-02-04T11:06:46;7.50;99.90
14119;DHT22;7138;49.246;9.100;2023-02-04T11:09:13;7.70;99.90
14119;DHT22;7138;49.246;9.100;2023-02-04T11:11:44;7.40;99.90
14119;DHT22;7138;49.246;9.100;2023-02-04T11:14:22;7.20;99.90
14119;DHT22;7138;49.246;9.100;2023-02-04T11:16:50;7.00;99.90
14119;DHT22;7138;49.246;9.100;2023-02-04T11:19:30;6.80;99.90
14119;DHT22;7138;49.246;9.100;2023-02-04T11:22:18;6.50;99.90
14119;DHT22;7138;49.246;9.100;2023-02-04T11:24:48;6.40;99.90
14119;DHT22;7138;49.246;9.100;2023-02-04T11:27:23;6.20;99.90
14119;DHT22;7138;49.246;9.100;2023-02-04T11:30:04;6.10;99.90
14119;DHT22;7138;49.246;9.100;2023-02-04T11:32:43;6.10;99.90
14119;DHT22;7138;49.246;9.100;2023-02-04T11:35:26;6.00;99.90
14119;DHT22;7138;49.246;9.100;2023-02-04T11:37:53;5.90;99.90
14119;DHT22;7138;49.246;9.100;2023-02-04T11:40:28;5.90;99.90
14119;DHT22;7138;49.246;9.100;2023-02-04T11:42:57;6.00;99.90
14119;DHT22;7138;49.246;9.100;2023-02-04T11:45:27;6.00;99.90
14119;DHT22;7138;49.246;9.100;2023-02-04T11:48:01;6.00;99.90
14119;DHT22;7138;49.246;9.100;2023-02-04T11:50:29;6.10;99.90
14119;DHT22;7138;49.246;9.100;2023-02-04T11:52:58;6.40;99.90
14119;DHT22;7138;49.246;9.100;2023-02-04T11:55:28;6.50;99.90
14119;DHT22;7138;49.246;9.100;2023-02-04T11:57:56;7.10;99.90
14119;DHT22;7138;49.246;9.100;2023-02-04T12:00:24;7.20;99.90
14119;DHT22;7138;49.246;9.100;2023-02-04T12:02:57;7.40;99.90
14119;DHT22;7138;49.246;9.100;2023-02-04T12:05:35;7.50;99.90
14119;DHT22;7138;49.246;9.100;2023-02-04T12:08:10;7.60;99.90
14119;DHT22;7138;49.246;9.100;2023-02-04T12:10:38;7.40;99.90
14119;DHT22;7138;49.246;9.100;2023-02-04T12:13:16;7.50;99.90
14119;DHT22;7138;49.246;9.100;2023-02-04T12:15:51;7.60;99.90
14119;DHT22;7138;49.246;9.100;2023-02-04T12:18:20;7.40;99.90
14119;DHT22;7138;49.246;9.100;2023-02-04T12:20:45;7.30;99.90
14119;DHT22;7138;49.246;9.100;2023-02-04T12:23:11;7.30;99.90
14119;DHT22;7138;49.246;9.100;2023-02-04T12:25:38;7.20;99.90
14119;DHT22;7138;49.246;9.100;2023-02-04T12:28:04;7.10;99.90
14119;DHT22;7138;49.246;9.100;2023-02-04T12:30:30;7.10;99.90
14119;DHT22;7138;49.246;9.100;2023-02-04T12:32:56;7.00;99.90
14119;DHT22;7138;49.246;9.100;2023-02-04T12:35:22;7.00;99.90
14119;DHT22;7138;49.246;9.100;2023-02-04T12:37:48;7.00;99.90
14119;DHT22;7138;49.246;9.100;2023-02-04T12:40:15;7.50;99.90
14119;DHT22;7138;49.246;9.100;2023-02-04T12:42:43;8.10;99.90
14119;DHT22;7138;49.246;9.100;2023-02-04T12:45:09;8.10;99.90
14119;DHT22;7138;49.246;9.100;2023-02-04T12:47:37;8.40;99.90
14119;DHT22;7138;49.246;9.100;2023-02-04T12:50:04;8.40;99.90
14119;DHT22;7138;49.246;9.100;2023-02-04T12:52:32;8.60;99.90
14119;DHT22;7138;49.246;9.100;2023-02-04T12:54:58;8.90;99.90
14119;DHT22;7138;49.246;9.100;2023-02-04T12:57:26;8.80;99.90
14119;DHT22;7138;49.246;9.100;2023-02-04T12:59:53;8.40;99.90
14119;DHT22;7138;49.246;9.100;2023-02-04T13:02:22;7.90;99.90
14119;DHT22;7138;49.246;9.100;2023-02-04T13:04:47;8.00;99.90
14119;DHT22;7138;49.246;9.100;2023-02-04T13:07:13;8.30;99.90
14119;DHT22;7138;49.246;9.100;2023-02-04T13:09:39;8.60;99.90
14119;DHT22;7138;49.246;9.100;2023-02-04T13:12:05;8.70;99.90
14119;DHT22;7138;49.246;9.100;2023-02-04T13:14:31;8.80;99.90
14119;DHT22;7138;49.246;9.100;2023-02-04T13:16:58;8.80;99.90
14119;DHT22;7138;49.246;9.100;2023-02-04T13:19:24;8.80;99.90
14119;DHT22;7138;49.246;9.100;2023-02-04T13:21:50;9.00;99.90
14119;DHT22;7138;49.246;9.100;2023-02-04T13:24:16;9.00;99.90
14119;DHT22;7138;49.246;9.100;2023-02-04T13:26:42;8.80;99.90
14119;DHT22;7138;49.246;9.100;2023-02-04T13:29:07;8.80;99.90
14119;DHT22;7138;49.246;9.100;2023-02-04T13:31:33;8.70;99.90
14119;DHT22;7138;49.246;9.100;2023-02-04T13:34:00;8.60;99.90
14119;DHT22;7138;49.246;9.100;2023-02-04T13:36:26;8.30;99.90
14119;DHT22;7138;49.246;9.100;2023-02-04T13:38:54;8.00;99.90
14119;DHT22;7138;49.246;9.100;2023-02-04T13:41:21;8.00;99.90
14119;DHT22;7138;49.246;9.100;2023-02-04T13:43:46;8.30;99.90
14119;DHT22;7138;49.246;9.100;2023-02-04T13:46:12;8.60;99.90
14119;DHT22;7138;49.246;9.100;2023-02-04T13:48:38;8.80;99.90
14119;DHT22;7138;49.246;9.100;2023-02-04T13:51:05;9.10;99.90
14119;DHT22;7138;49.246;9.100;2023-02-04T13:53:31;9.20;99.90
14119;DHT22;7138;49.246;9.100;2023-02-04T13:55:57;9.00;99.90
14119;DHT22;7138;49.246;9.100;2023-02-04T13:58:23;9.00;99.90
14119;DHT22;7138;49.246;9.100;2023-02-04T14:00:49;8.70;99.90
14119;DHT22;7138;49.246;9.100;2023-02-04T14:03:15;8.50;99.90
14119;DHT22;7138;49.246;9.100;2023-02-04T14:05:41;8.20;99.90
14119;DHT22;7138;49.246;9.100;2023-02-04T14:08:08;8.20;99.90
14119;DHT22;7138;49.246;9.100;2023-02-04T14:10:34;8.00;99.90
14119;DHT22;7138;49.246;9.100;2023-02-04T14:13:00;7.60;99.90
14119;DHT22;7138;49.246;9.100;2023-02-04T14:15:26;7.40;99.90
14119;DHT22;7138;49.246;9.100;2023-02-04T14:17:52;7.30;99.90
14119;DHT22;7138;49.246;9.100;2023-02-04T14:20:18;7.00;99.90
14119;DHT22;7138;49.246;9.100;2023-02-04T14:22:44;7.00;99.90
14119;DHT22;7138;49.246;9.100;2023-02-04T14:25:13;6.80;99.90
14119;DHT22;7138;49.246;9.100;2023-02-04T14:27:39;6.70;99.90
14119;DHT22;7138;49.246;9.100;2023-02-04T14:30:09;6.60;99.90
14119;DHT22;7138;49.246;9.100;2023-02-04T14:32:41;6.60;99.90
14119;DHT22;7138;49.246;9.100;2023-02-04T14:35:07;6.60;99.90
14119;DHT22;7138;49.246;9.100;2023-02-04T14:37:33;6.70;99.90
14119;DHT22;7138;49.246;9.100;2023-02-04T14:39:58;6.60;99.90
14119;DHT22;7138;49.246;9.100;2023-02-04T14:42:26;6.50;99.90
14119;DHT22;7138;49.246;9.100;2023-02-04T14:44:51;6.60;99.90
14119;DHT22;7138;49.246;9.100;2023-02-04T14:47:17;6.60;99.90
14119;DHT22;7138;49.246;9.100;2023-02-04T14:49:43;6.70;99.90
14119;DHT22;7138;49.246;9.100;2023-02-04T14:52:09;6.90;99.90
14119;DHT22;7138;49.246;9.100;2023-02-04T14:54:36;7.10;99.90
14119;DHT22;7138;49.246;9.100;2023-02-04T14:57:03;7.00;99.90
14119;DHT22;7138;49.246;9.100;2023-02-04T14:59:30;6.80;99.90
14119;DHT22;7138;49.246;9.100;2023-02-04T15:01:56;6.60;99.90
14119;DHT22;7138;49.246;9.100;2023-02-04T15:04:21;6.50;99.90
14119;DHT22;7138;49.246;9.100;2023-02-04T15:06:47;6.60;99.90
14119;DHT22;7138;49.246;9.100;2023-02-04T15:09:15;6.70;99.90
14119;DHT22;7138;49.246;9.100;2023-02-04T15:11:41;6.90;99.90
14119;DHT22;7138;49.246;9.100;2023-02-04T15:14:07;6.70;99.90
14119;DHT22;7138;49.246;9.100;2023-02-04T15:16:34;6.80;99.90
14119;DHT22;7138;49.246;9.100;2023-02-04T15:19:00;6.70;99.90
14119;DHT22;7138;49.246;9.100;2023-02-04T15:21:26;6.60;99.90
14119;DHT22;7138;49.246;9.100;2023-02-04T15:23:51;6.40;99.90
14119;DHT22;7138;49.246;9.100;2023-02-04T15:26:17;6.30;99.90
14119;DHT22;7138;49.246;9.100;2023-02-04T15:28:43;6.30;99.90
14119;DHT22;7138;49.246;9.100;2023-02-04T15:31:09;6.30;99.90
14119;DHT22;7138;49.246;9.100;2023-02-04T15:33:38;6.20;99.90
14119;DHT22;7138;49.246;9.100;2023-02-04T15:36:04;6.20;99.90
14119;DHT22;7138;49.246;9.100;2023-02-04T15:38:30;6.10;99.90
14119;DHT22;7138;49.246;9.100;2023-02-04T15:40:56;6.10;99.90
14119;DHT22;7138;49.246;9.100;2023-02-04T15:43:22;6.00;99.90
14119;DHT22;7138;49.246;9.100;2023-02-04T15:45:48;6.00;99.90
14119;DHT22;7138;49.246;9.100;2023-02-04T15:48:13;6.00;99.90
14119;DHT22;7138;49.246;9.100;2023-02-04T15:50:42;6.00;99.90
14119;DHT22;7138;49.246;9.100;2023-02-04T15:53:08;6.00;99.90
14119;DHT22;7138;49.246;9.100;2023-02-04T15:55:34;6.00;99.90
14119;DHT22;7138;49.246;9.100;2023-02-04T15:58:00;5.90;99.90
14119;DHT22;7138;49.246;9.100;2023-02-04T16:00:25;5.80;99.90